Time;durP1;ratioP1;P1;durP2;ratioP2;P2;SDS_P1;SDS_P2;PMS_P1;PMS_P2;Temp;Humidity;BMP_temperature;BMP_pressure;BME280_temperature;BME280_humidity;BME280_pressure;Samples;Min_cycle;Max_cycle;Signal;HPM_P1;HPM_P2
2022/07/25 00:01:51;;;;;;;;;;;16.70;99.90;;;;;;5025394;28;19926;-59
2022/07/25 00:04:18;;;;;;;;;;;16.70;99.90;;;;;;5008510;28;19985;-59
2022/07/25 00:06:46;;;;;;;;;;;16.70;99.90;;;;;;5014188;28;19925;-57
2022/07/25 00:09:13;;;;;;;;;;;16.70;99.90;;;;;;5004936;28;19926;-59
2022/07/25 00:11:41;;;;;;;;;;;16.80;99.90;;;;;;4990317;28;19926;-59
2022/07/25 00:14:08;;;;;;;;;;;16.70;99.90;;;;;;5000112;28;20392;-60
2022/07/25 00:16:36;;;;;;;;;;;16.70;99.90;;;;;;5008339;28;19925;-59
2022/07/25 00:19:04;;;;;;;;;;;16.70;99.90;;;;;;5006139;28;19930;-59
2022/07/25 00:21:32;;;;;;;;;;;16.70;99.90;;;;;;5008940;28;19926;-60
2022/07/25 00:23:59;;;;;;;;;;;16.70;99.90;;;;;;5001299;28;19930;-60
2022/07/25 00:26:27;;;;;;;;;;;16.70;99.90;;;;;;4990180;28;19926;-60
2022/07/25 00:28:54;;;;;;;;;;;16.70;99.90;;;;;;4992091;28;20537;-60
2022/07/25 00:31:22;;;;;;;;;;;16.70;99.90;;;;;;5009729;28;19945;-59
2022/07/25 00:33:50;;;;;;;;;;;16.70;99.90;;;;;;5008164;28;20474;-59
2022/07/25 00:36:17;;;;;;;;;;;16.70;99.90;;;;;;5005206;28;19925;-60
2022/07/25 00:38:45;;;;;;;;;;;16.70;99.90;;;;;;5005719;28;19933;-59
2022/07/25 00:41:12;;;;;;;;;;;16.70;99.90;;;;;;5007035;28;19929;-60
2022/07/25 00:43:44;;;;;;;;;;;16.70;99.90;;;;;;5006126;28;19929;-59
2022/07/25 00:46:12;;;;;;;;;;;16.70;99.90;;;;;;4998068;28;19932;-59
2022/07/25 00:48:45;;;;;;;;;;;16.70;99.90;;;;;;5009330;28;19932;-59
2022/07/25 00:51:14;;;;;;;;;;;16.70;99.90;;;;;;5008277;28;19925;-59
2022/07/25 00:53:42;;;;;;;;;;;16.70;99.90;;;;;;5008569;28;19925;-59
2022/07/25 00:56:09;;;;;;;;;;;16.70;99.90;;;;;;5008260;28;19926;-60
2022/07/25 00:58:37;;;;;;;;;;;16.70;99.90;;;;;;5010866;28;19932;-59
2022/07/25 01:01:04;;;;;;;;;;;16.70;99.90;;;;;;4989730;28;19933;-60
2022/07/25 01:03:32;;;;;;;;;;;16.70;99.90;;;;;;4988809;28;19930;-60
2022/07/25 01:05:59;;;;;;;;;;;16.70;99.90;;;;;;5001612;28;19938;-59
2022/07/25 01:08:28;;;;;;;;;;;16.70;99.90;;;;;;5008481;28;19926;-58
2022/07/25 01:10:55;;;;;;;;;;;16.70;99.90;;;;;;5006918;28;20409;-59
2022/07/25 01:13:24;;;;;;;;;;;16.70;99.90;;;;;;5021648;28;19997;-60
2022/07/25 01:15:52;;;;;;;;;;;16.70;99.90;;;;;;5002665;28;19929;-60
2022/07/25 01:18:19;;;;;;;;;;;16.70;99.90;;;;;;5008114;28;19957;-60
2022/07/25 01:20:47;;;;;;;;;;;16.60;99.90;;;;;;5007954;28;19925;-59
2022/07/25 01:23:14;;;;;;;;;;;16.60;99.90;;;;;;5007182;28;19925;-60
2022/07/25 01:25:42;;;;;;;;;;;16.60;99.90;;;;;;5007156;28;19926;-58
2022/07/25 01:28:09;;;;;;;;;;;16.60;99.90;;;;;;5008187;28;19993;-60
2022/07/25 01:30:37;;;;;;;;;;;16.60;99.90;;;;;;4994014;28;19926;-60
2022/07/25 01:33:04;;;;;;;;;;;16.50;99.90;;;;;;4990993;28;19933;-60
2022/07/25 01:35:33;;;;;;;;;;;16.50;99.90;;;;;;5004801;28;19933;-60
2022/07/25 01:38:05;;;;;;;;;;;16.40;99.90;;;;;;5011162;28;19925;-60
2022/07/25 01:40:32;;;;;;;;;;;16.40;99.90;;;;;;5010465;28;19929;-60
2022/07/25 01:43:00;;;;;;;;;;;16.30;99.90;;;;;;5005779;28;19926;-60
2022/07/25 01:45:27;;;;;;;;;;;16.30;99.90;;;;;;4982127;28;19989;-59
2022/07/25 01:47:55;;;;;;;;;;;16.30;99.90;;;;;;5009054;28;19932;-60
2022/07/25 01:50:23;;;;;;;;;;;16.30;99.90;;;;;;5009782;28;19932;-60
2022/07/25 01:52:50;;;;;;;;;;;16.30;99.90;;;;;;5011393;28;19936;-60
2022/07/25 01:55:18;;;;;;;;;;;16.30;99.90;;;;;;5011546;28;20392;-60
2022/07/25 01:57:45;;;;;;;;;;;16.40;99.90;;;;;;5009517;28;19926;-60
2022/07/25 02:00:18;;;;;;;;;;;16.40;99.90;;;;;;5010162;28;20468;-60
2022/07/25 02:02:45;;;;;;;;;;;16.30;99.90;;;;;;5010099;28;19925;-59
2022/07/25 02:05:14;;;;;;;;;;;16.40;99.90;;;;;;5011132;28;19974;-58
2022/07/25 02:07:41;;;;;;;;;;;16.40;99.90;;;;;;4993298;28;19926;-59
2022/07/25 02:10:09;;;;;;;;;;;16.40;99.90;;;;;;5009741;28;19933;-60
2022/07/25 02:12:36;;;;;;;;;;;16.30;99.90;;;;;;4991867;28;20479;-59
2022/07/25 02:15:04;;;;;;;;;;;16.30;99.90;;;;;;5001908;28;19933;-59
2022/07/25 02:17:31;;;;;;;;;;;16.30;99.90;;;;;;5010766;28;19925;-59
2022/07/25 02:19:59;;;;;;;;;;;16.30;99.90;;;;;;5010647;28;19933;-59
2022/07/25 02:22:26;;;;;;;;;;;16.30;99.90;;;;;;4996930;28;19930;-60
2022/07/25 02:24:54;;;;;;;;;;;16.30;99.90;;;;;;4995466;28;19925;-60
2022/07/25 02:27:21;;;;;;;;;;;16.30;99.90;;;;;;4995285;28;19933;-60
2022/07/25 02:29:49;;;;;;;;;;;16.30;99.90;;;;;;4995455;28;19933;-60
2022/07/25 02:32:16;;;;;;;;;;;16.20;99.90;;;;;;5006245;28;19925;-60
2022/07/25 02:34:43;;;;;;;;;;;16.20;99.90;;;;;;5013827;28;19925;-60
2022/07/25 02:37:11;;;;;;;;;;;16.10;99.90;;;;;;5001667;28;19925;-60
2022/07/25 02:39:39;;;;;;;;;;;16.20;99.90;;;;;;4995249;28;19933;-60
2022/07/25 02:42:06;;;;;;;;;;;16.20;99.90;;;;;;5005774;28;20403;-60
2022/07/25 02:44:34;;;;;;;;;;;16.10;99.90;;;;;;5007423;28;19925;-60
2022/07/25 02:47:01;;;;;;;;;;;16.20;99.90;;;;;;4993768;28;19941;-59
2022/07/25 02:49:28;;;;;;;;;;;16.20;99.90;;;;;;4993575;28;19936;-59
2022/07/25 02:51:56;;;;;;;;;;;16.20;99.90;;;;;;5025486;28;19949;-59
2022/07/25 02:54:23;;;;;;;;;;;16.10;99.90;;;;;;5015880;28;19926;-60
2022/07/25 02:56:51;;;;;;;;;;;16.20;99.90;;;;;;5012277;28;20411;-59
2022/07/25 02:59:19;;;;;;;;;;;16.20;99.90;;;;;;5014444;28;19936;-59
2022/07/25 03:01:46;;;;;;;;;;;16.20;99.90;;;;;;5005048;28;19925;-59
2022/07/25 03:04:14;;;;;;;;;;;16.20;99.90;;;;;;4994670;28;19926;-60
2022/07/25 03:06:43;;;;;;;;;;;16.20;99.90;;;;;;4994542;28;19925;-60
2022/07/25 03:09:10;;;;;;;;;;;16.20;99.90;;;;;;4994793;28;19933;-60
2022/07/25 03:11:38;;;;;;;;;;;16.20;99.90;;;;;;5003512;28;19925;-60
2022/07/25 03:14:08;;;;;;;;;;;16.20;99.90;;;;;;5012991;28;20391;-61
2022/07/25 03:16:36;;;;;;;;;;;16.20;99.90;;;;;;5014242;28;19932;-60
2022/07/25 03:19:09;;;;;;;;;;;16.20;99.90;;;;;;5014352;28;19926;-61
2022/07/25 03:21:36;;;;;;;;;;;16.20;99.90;;;;;;5003622;28;19941;-60
2022/07/25 03:24:04;;;;;;;;;;;16.20;99.90;;;;;;5013888;28;19932;-60
2022/07/25 03:26:32;;;;;;;;;;;16.10;99.90;;;;;;5013763;28;19926;-60
2022/07/25 03:28:59;;;;;;;;;;;16.10;99.90;;;;;;5012084;28;19926;-60
2022/07/25 03:31:27;;;;;;;;;;;16.10;99.90;;;;;;5020946;28;19929;-59
2022/07/25 03:33:54;;;;;;;;;;;16.10;99.90;;;;;;4998569;28;19932;-59
2022/07/25 03:36:22;;;;;;;;;;;16.10;99.90;;;;;;4994115;28;19926;-60
2022/07/25 03:38:50;;;;;;;;;;;16.10;99.90;;;;;;4994120;28;19932;-59
2022/07/25 03:41:17;;;;;;;;;;;16.10;99.90;;;;;;4993866;28;19960;-59
2022/07/25 03:43:45;;;;;;;;;;;16.00;99.90;;;;;;5008853;28;19925;-60
2022/07/25 03:46:12;;;;;;;;;;;16.00;99.90;;;;;;5010907;28;20491;-60
2022/07/25 03:48:40;;;;;;;;;;;16.00;99.90;;;;;;5013191;28;19932;-59
2022/07/25 03:51:07;;;;;;;;;;;16.00;99.90;;;;;;5012589;28;20316;-60
2022/07/25 03:54:00;;;;;;;;;;;16.00;99.90;;;;;;4992373;28;19930;-59
2022/07/25 03:56:22;;;;;;;;;;;15.90;99.90;;;;;;4993719;28;19926;-60
2022/07/25 03:58:49;;;;;;;;;;;15.90;99.90;;;;;;5000091;28;19948;-61
2022/07/25 04:01:17;;;;;;;;;;;15.90;99.90;;;;;;5012212;28;19929;-60
2022/07/25 04:03:45;;;;;;;;;;;15.90;99.90;;;;;;5012062;28;19926;-60
2022/07/25 04:06:13;;;;;;;;;;;15.90;99.90;;;;;;5012952;28;19925;-60
2022/07/25 04:08:40;;;;;;;;;;;15.80;99.90;;;;;;5002016;28;19926;-60
2022/07/25 04:11:08;;;;;;;;;;;15.80;99.90;;;;;;4993894;28;20431;-61
2022/07/25 04:13:35;;;;;;;;;;;15.70;99.90;;;;;;4993449;28;19930;-60
2022/07/25 04:16:03;;;;;;;;;;;15.70;99.90;;;;;;5007648;28;19926;-61
2022/07/25 04:18:31;;;;;;;;;;;15.70;99.90;;;;;;4993369;28;19925;-61
2022/07/25 04:21:00;;;;;;;;;;;15.60;99.90;;;;;;5002849;28;20005;-60
2022/07/25 04:23:28;;;;;;;;;;;15.50;99.90;;;;;;5012691;28;19925;-60
2022/07/25 04:25:56;;;;;;;;;;;15.50;99.90;;;;;;5011483;28;19933;-60
2022/07/25 04:28:24;;;;;;;;;;;15.50;99.90;;;;;;5013024;28;20399;-61
2022/07/25 04:30:52;;;;;;;;;;;15.50;99.90;;;;;;5012472;28;19926;-61
2022/07/25 04:33:19;;;;;;;;;;;15.40;99.90;;;;;;5011438;28;20001;-61
2022/07/25 04:35:47;;;;;;;;;;;15.50;99.90;;;;;;5012650;28;19929;-58
2022/07/25 04:38:14;;;;;;;;;;;15.40;99.90;;;;;;5012695;28;19926;-61
2022/07/25 04:40:42;;;;;;;;;;;15.50;99.90;;;;;;5027760;28;19932;-60
2022/07/25 04:43:09;;;;;;;;;;;15.50;99.90;;;;;;5011303;28;20320;-61
2022/07/25 04:45:37;;;;;;;;;;;15.50;99.90;;;;;;5012013;28;19932;-59
2022/07/25 04:48:05;;;;;;;;;;;15.50;99.90;;;;;;5006174;28;19926;-59
2022/07/25 04:50:32;;;;;;;;;;;15.40;99.90;;;;;;5008951;28;19926;-59
2022/07/25 04:53:00;;;;;;;;;;;15.40;99.90;;;;;;5009040;28;19925;-60
2022/07/25 04:55:27;;;;;;;;;;;15.50;99.90;;;;;;5007923;28;19933;-60
2022/07/25 04:57:55;;;;;;;;;;;15.50;99.90;;;;;;4999910;28;19937;-60
2022/07/25 05:00:23;;;;;;;;;;;15.50;99.90;;;;;;4989805;28;19953;-59
2022/07/25 05:02:50;;;;;;;;;;;15.50;99.90;;;;;;5002245;28;19929;-60
2022/07/25 05:05:19;;;;;;;;;;;15.60;99.90;;;;;;5008238;28;19937;-60
2022/07/25 05:07:49;;;;;;;;;;;15.60;99.90;;;;;;5005834;28;19926;-60
2022/07/25 05:10:16;;;;;;;;;;;15.60;99.90;;;;;;5008789;28;20001;-59
2022/07/25 05:12:44;;;;;;;;;;;15.60;99.90;;;;;;5000905;28;19933;-60
2022/07/25 05:15:11;;;;;;;;;;;15.60;99.90;;;;;;5011725;28;19926;-59
2022/07/25 05:17:39;;;;;;;;;;;15.60;99.90;;;;;;5005551;28;19925;-61
2022/07/25 05:20:07;;;;;;;;;;;15.60;99.90;;;;;;4992891;28;19925;-60
2022/07/25 05:22:34;;;;;;;;;;;15.60;99.90;;;;;;5003636;28;19958;-61
2022/07/25 05:25:04;;;;;;;;;;;15.70;99.90;;;;;;5006960;28;19948;-60
2022/07/25 05:27:32;;;;;;;;;;;15.60;99.90;;;;;;5005590;28;19932;-60
2022/07/25 05:29:59;;;;;;;;;;;15.60;99.90;;;;;;5005681;28;19925;-60
2022/07/25 05:32:27;;;;;;;;;;;15.70;99.90;;;;;;5000433;28;20396;-61
2022/07/25 05:34:55;;;;;;;;;;;15.70;99.90;;;;;;5005265;28;19932;-60
2022/07/25 05:37:23;;;;;;;;;;;15.70;99.90;;;;;;5000417;28;19925;-61
2022/07/25 05:39:51;;;;;;;;;;;15.70;99.90;;;;;;4997024;28;19937;-61
2022/07/25 05:42:18;;;;;;;;;;;15.70;99.90;;;;;;5007518;28;19933;-61
2022/07/25 05:44:46;;;;;;;;;;;15.70;99.90;;;;;;5004961;28;19926;-61
2022/07/25 05:47:13;;;;;;;;;;;15.70;99.90;;;;;;5006442;28;19940;-60
2022/07/25 05:49:41;;;;;;;;;;;15.80;99.90;;;;;;5007802;28;19925;-61
2022/07/25 05:52:09;;;;;;;;;;;15.80;99.90;;;;;;5008253;28;19926;-61
2022/07/25 05:54:40;;;;;;;;;;;15.80;99.90;;;;;;5008279;28;19933;-61
2022/07/25 05:57:07;;;;;;;;;;;15.90;99.90;;;;;;5008003;28;19929;-60
2022/07/25 05:59:35;;;;;;;;;;;15.90;99.90;;;;;;5012296;28;19929;-60
2022/07/25 06:02:02;;;;;;;;;;;15.90;99.90;;;;;;5009605;28;19930;-60
2022/07/25 06:04:30;;;;;;;;;;;15.90;99.90;;;;;;5007132;28;19930;-59
2022/07/25 06:06:58;;;;;;;;;;;15.90;99.90;;;;;;5010122;28;19929;-61
2022/07/25 06:09:26;;;;;;;;;;;16.00;99.90;;;;;;5010850;28;19933;-61
2022/07/25 06:11:53;;;;;;;;;;;16.00;99.90;;;;;;5011672;28;19945;-61
2022/07/25 06:14:27;;;;;;;;;;;16.00;99.90;;;;;;5003206;28;20301;-60
2022/07/25 06:16:55;;;;;;;;;;;15.80;99.90;;;;;;5007966;28;19925;-61
2022/07/25 06:19:23;;;;;;;;;;;16.00;99.90;;;;;;5014408;28;19933;-60
2022/07/25 06:21:50;;;;;;;;;;;16.10;99.90;;;;;;5008269;28;20391;-61
2022/07/25 06:24:18;;;;;;;;;;;16.10;99.90;;;;;;5003481;28;20367;-61
2022/07/25 06:26:46;;;;;;;;;;;16.10;99.90;;;;;;5010410;28;19925;-61
2022/07/25 06:29:13;;;;;;;;;;;16.20;99.90;;;;;;5030453;28;20423;-61
2022/07/25 06:31:41;;;;;;;;;;;16.30;99.90;;;;;;5030203;28;19933;-60
2022/07/25 06:34:13;;;;;;;;;;;16.20;99.90;;;;;;5012791;28;20369;-61
2022/07/25 06:36:41;;;;;;;;;;;16.20;99.90;;;;;;5026305;28;19926;-61
2022/07/25 06:39:08;;;;;;;;;;;16.20;99.90;;;;;;5010117;28;20281;-60
2022/07/25 06:41:36;;;;;;;;;;;16.10;99.90;;;;;;5011934;28;19933;-61
2022/07/25 06:44:04;;;;;;;;;;;16.00;99.90;;;;;;5010055;28;20395;-62
2022/07/25 06:46:32;;;;;;;;;;;15.90;99.90;;;;;;5011406;28;19925;-61
2022/07/25 06:48:59;;;;;;;;;;;15.90;99.90;;;;;;5011838;28;19925;-63
2022/07/25 06:51:27;;;;;;;;;;;15.90;99.90;;;;;;5026459;28;19932;-62
2022/07/25 06:53:55;;;;;;;;;;;15.80;99.90;;;;;;5009436;28;19956;-61
2022/07/25 06:56:23;;;;;;;;;;;15.80;99.90;;;;;;5011116;28;19932;-61
2022/07/25 06:58:52;;;;;;;;;;;15.80;99.90;;;;;;5009735;28;19929;-60
2022/07/25 07:01:19;;;;;;;;;;;15.80;99.90;;;;;;5025303;28;19934;-61
2022/07/25 07:03:47;;;;;;;;;;;15.80;99.90;;;;;;5002294;28;20278;-61
2022/07/25 07:06:14;;;;;;;;;;;15.80;99.90;;;;;;5022822;28;19925;-62
2022/07/25 07:08:42;;;;;;;;;;;15.90;99.90;;;;;;5026860;28;19997;-61
2022/07/25 07:11:12;;;;;;;;;;;15.90;99.90;;;;;;5007726;28;20369;-62
2022/07/25 07:13:39;;;;;;;;;;;15.90;99.90;;;;;;4996307;28;19926;-62
2022/07/25 07:16:07;;;;;;;;;;;16.00;99.90;;;;;;4990478;28;20530;-61
2022/07/25 07:18:35;;;;;;;;;;;16.00;99.90;;;;;;5003764;28;19934;-61
2022/07/25 07:21:03;;;;;;;;;;;16.10;99.90;;;;;;5009485;28;19948;-62
2022/07/25 07:23:32;;;;;;;;;;;16.20;99.90;;;;;;5022717;28;19926;-61
2022/07/25 07:26:00;;;;;;;;;;;16.20;99.90;;;;;;5029266;28;19925;-62
2022/07/25 07:28:28;;;;;;;;;;;16.30;99.90;;;;;;5004637;28;19926;-61
2022/07/25 07:30:56;;;;;;;;;;;16.40;99.90;;;;;;4990100;28;19937;-63
2022/07/25 07:33:44;;;;;;;;;;;16.50;99.90;;;;;;5001183;28;19929;-63
2022/07/25 07:36:12;;;;;;;;;;;16.60;99.90;;;;;;5025542;28;19925;-61
2022/07/25 07:38:40;;;;;;;;;;;16.80;99.90;;;;;;5006549;28;19952;-61
2022/07/25 07:41:07;;;;;;;;;;;17.00;99.90;;;;;;5010502;28;19932;-63
2022/07/25 07:43:35;;;;;;;;;;;17.10;99.90;;;;;;5005690;28;20308;-61
2022/07/25 07:46:03;;;;;;;;;;;17.20;99.90;;;;;;4989758;28;19933;-62
2022/07/25 07:48:31;;;;;;;;;;;17.30;99.90;;;;;;4991975;28;20507;-61
2022/07/25 07:50:59;;;;;;;;;;;17.40;99.90;;;;;;5001884;28;19937;-61
2022/07/25 07:56:14;;;;;;;;;;;17.50;99.90;;;;;;5023047;28;20385;-61
2022/07/25 07:58:42;;;;;;;;;;;17.60;99.90;;;;;;5010309;28;20389;-61
2022/07/25 08:01:09;;;;;;;;;;;17.60;99.90;;;;;;5007157;28;19940;-61
2022/07/25 08:03:37;;;;;;;;;;;17.70;99.90;;;;;;5021098;28;19933;-61
2022/07/25 08:06:04;;;;;;;;;;;17.70;99.90;;;;;;4986758;28;19933;-62
2022/07/25 08:08:32;;;;;;;;;;;17.80;99.90;;;;;;5002804;28;19933;-61
2022/07/25 08:11:00;;;;;;;;;;;17.80;99.90;;;;;;5008841;28;19948;-61
2022/07/25 08:13:28;;;;;;;;;;;17.90;99.90;;;;;;4999933;28;19929;-60
2022/07/25 08:15:57;;;;;;;;;;;17.90;99.90;;;;;;5008283;28;19930;-61
2022/07/25 08:18:26;;;;;;;;;;;17.90;99.90;;;;;;5009714;28;20543;-61
2022/07/25 08:20:53;;;;;;;;;;;17.90;99.90;;;;;;4999331;28;20444;-60
2022/07/25 08:23:26;;;;;;;;;;;17.80;99.90;;;;;;5006259;28;20377;-60
2022/07/25 08:25:54;;;;;;;;;;;17.90;99.90;;;;;;5004877;28;20292;-61
2022/07/25 08:28:21;;;;;;;;;;;17.90;99.90;;;;;;5011817;28;19925;-61
2022/07/25 08:30:49;;;;;;;;;;;18.00;99.90;;;;;;5004185;28;19925;-60
2022/07/25 08:33:16;;;;;;;;;;;18.00;99.90;;;;;;5001665;28;19925;-61
2022/07/25 08:35:45;;;;;;;;;;;18.00;99.90;;;;;;4993632;28;19932;-61
2022/07/25 08:38:12;;;;;;;;;;;18.00;99.90;;;;;;5001450;28;19952;-62
2022/07/25 08:40:40;;;;;;;;;;;18.00;99.90;;;;;;5009413;28;19929;-63
2022/07/25 08:43:12;;;;;;;;;;;18.00;99.90;;;;;;5007308;28;20277;-60
2022/07/25 08:45:49;;;;;;;;;;;18.00;99.90;;;;;;5005341;28;19925;-61
2022/07/25 08:48:18;;;;;;;;;;;18.10;99.90;;;;;;5009234;28;19925;-61
2022/07/25 08:50:47;;;;;;;;;;;18.20;99.90;;;;;;4992583;28;19926;-62
2022/07/25 08:53:15;;;;;;;;;;;18.30;99.90;;;;;;4998711;28;19925;-62
2022/07/25 08:55:59;;;;;;;;;;;18.40;99.90;;;;;;5008101;28;19933;-62
2022/07/25 08:58:36;;;;;;;;;;;18.40;99.90;;;;;;4994564;28;19926;-62
2022/07/25 09:01:03;;;;;;;;;;;18.40;99.90;;;;;;4995614;28;19933;-63
2022/07/25 09:03:35;;;;;;;;;;;18.40;99.90;;;;;;5012217;28;19926;-62
2022/07/25 09:06:12;;;;;;;;;;;18.30;99.90;;;;;;5008903;28;19929;-62
2022/07/25 09:08:49;;;;;;;;;;;18.20;99.90;;;;;;4994969;28;19947;-62
2022/07/25 09:11:30;;;;;;;;;;;18.20;99.90;;;;;;5004094;28;19925;-62
2022/07/25 09:13:58;;;;;;;;;;;18.10;99.90;;;;;;5007998;28;19933;-63
2022/07/25 09:16:30;;;;;;;;;;;18.10;99.90;;;;;;5007638;28;19925;-62
2022/07/25 09:19:10;;;;;;;;;;;18.10;99.90;;;;;;5019398;28;19926;-61
2022/07/25 09:21:38;;;;;;;;;;;18.20;99.90;;;;;;5007367;28;19926;-61
2022/07/25 09:24:07;;;;;;;;;;;18.20;99.90;;;;;;5008387;28;19930;-61
2022/07/25 09:26:46;;;;;;;;;;;18.10;99.90;;;;;;5009075;28;19936;-60
2022/07/25 09:29:17;;;;;;;;;;;18.10;99.90;;;;;;5008482;28;19932;-60
2022/07/25 09:31:45;;;;;;;;;;;18.10;99.90;;;;;;5008647;28;19937;-60
2022/07/25 09:34:15;;;;;;;;;;;18.10;99.90;;;;;;5008043;28;19945;-59
2022/07/25 09:36:53;;;;;;;;;;;18.20;99.90;;;;;;5011356;28;19925;-59
2022/07/25 09:39:31;;;;;;;;;;;18.30;99.90;;;;;;5012392;28;20288;-59
2022/07/25 09:41:58;;;;;;;;;;;18.40;99.90;;;;;;5011816;28;20389;-60
2022/07/25 09:44:29;;;;;;;;;;;18.40;99.90;;;;;;5013823;28;19933;-62
2022/07/25 09:47:00;;;;;;;;;;;18.60;99.90;;;;;;5010051;28;20297;-61
2022/07/25 09:49:40;;;;;;;;;;;18.80;99.90;;;;;;5011494;28;19925;-61
2022/07/25 09:52:09;;;;;;;;;;;18.90;99.90;;;;;;5009418;28;19925;-60
2022/07/25 09:54:37;;;;;;;;;;;19.00;99.90;;;;;;5011496;28;19929;-62
2022/07/25 09:57:05;;;;;;;;;;;19.10;99.90;;;;;;5011791;28;19925;-61
2022/07/25 09:59:33;;;;;;;;;;;19.30;99.90;;;;;;5012338;28;19932;-61
2022/07/25 10:02:08;;;;;;;;;;;19.50;99.90;;;;;;5010079;28;19936;-61
2022/07/25 10:04:42;;;;;;;;;;;19.60;99.90;;;;;;5015009;28;19936;-61
2022/07/25 10:07:12;;;;;;;;;;;19.70;99.90;;;;;;5005508;28;19929;-62
2022/07/25 10:09:48;;;;;;;;;;;19.70;99.90;;;;;;4997888;28;19925;-63
2022/07/25 10:12:20;;;;;;;;;;;19.70;99.90;;;;;;5009362;28;19929;-61
2022/07/25 10:15:07;;;;;;;;;;;19.60;99.90;;;;;;5012287;28;19932;-61
2022/07/25 10:17:35;;;;;;;;;;;19.60;99.90;;;;;;5006091;28;19930;-61
2022/07/25 10:20:05;;;;;;;;;;;19.40;99.90;;;;;;5008260;28;19925;-62
2022/07/25 10:22:36;;;;;;;;;;;19.30;99.90;;;;;;5004971;28;20377;-63
2022/07/25 10:25:22;;;;;;;;;;;19.40;99.90;;;;;;5006430;28;19925;-63
2022/07/25 10:27:52;;;;;;;;;;;19.70;99.90;;;;;;5001638;28;19934;-63
2022/07/25 10:30:21;;;;;;;;;;;19.80;99.90;;;;;;5007777;28;19925;-62
2022/07/25 10:32:59;;;;;;;;;;;19.80;99.90;;;;;;5011609;28;19930;-63
2022/07/25 10:35:27;;;;;;;;;;;19.70;99.90;;;;;;5010971;28;20364;-64
2022/07/25 10:37:55;;;;;;;;;;;19.60;99.90;;;;;;5011324;28;19926;-63
2022/07/25 10:40:28;;;;;;;;;;;19.20;99.90;;;;;;5011256;28;20458;-63
2022/07/25 10:42:59;;;;;;;;;;;18.60;99.90;;;;;;5013112;28;19929;-63
2022/07/25 10:45:32;;;;;;;;;;;18.20;99.90;;;;;;5017990;28;20408;-63
2022/07/25 10:48:08;;;;;;;;;;;17.90;99.90;;;;;;5001649;28;19925;-64
2022/07/25 10:50:46;;;;;;;;;;;17.60;99.90;;;;;;4991928;28;19926;-64
2022/07/25 10:53:46;;;;;;;;;;;17.50;99.90;;;;;;5011959;28;19932;-62
2022/07/25 10:56:14;;;;;;;;;;;17.40;99.90;;;;;;5009695;28;19933;-61
2022/07/25 10:58:43;;;;;;;;;;;17.40;99.90;;;;;;5009062;28;20296;-60
2022/07/25 11:01:13;;;;;;;;;;;17.40;99.90;;;;;;5006760;28;19952;-61
2022/07/25 11:03:43;;;;;;;;;;;17.50;99.90;;;;;;5011159;28;19933;-62
2022/07/25 11:06:12;;;;;;;;;;;17.60;99.90;;;;;;5026477;28;20426;-62
2022/07/25 11:08:40;;;;;;;;;;;17.80;99.90;;;;;;5005602;28;19926;-61
2022/07/25 11:11:09;;;;;;;;;;;18.00;99.90;;;;;;5003047;28;19925;-62
2022/07/25 11:13:40;;;;;;;;;;;18.40;99.90;;;;;;5017984;28;19937;-61
2022/07/25 11:16:07;;;;;;;;;;;18.70;99.90;;;;;;5030672;28;19929;-62
2022/07/25 11:18:39;;;;;;;;;;;19.00;99.90;;;;;;5012785;28;19930;-63
2022/07/25 11:21:08;;;;;;;;;;;19.30;99.90;;;;;;5026033;28;20222;-60
2022/07/25 11:23:35;;;;;;;;;;;19.50;99.90;;;;;;5006938;28;19937;-61
2022/07/25 11:26:06;;;;;;;;;;;19.60;99.90;;;;;;5010081;28;19925;-62
2022/07/25 11:28:41;;;;;;;;;;;19.50;99.90;;;;;;5013753;28;19940;-61
2022/07/25 11:31:09;;;;;;;;;;;19.30;99.90;;;;;;5005993;28;19926;-62
2022/07/25 11:33:37;;;;;;;;;;;19.10;99.90;;;;;;5013835;28;19948;-61
2022/07/25 11:36:05;;;;;;;;;;;18.90;99.90;;;;;;5008744;28;19930;-62
2022/07/25 11:38:36;;;;;;;;;;;18.80;99.90;;;;;;5007912;28;19930;-61
2022/07/25 11:41:03;;;;;;;;;;;18.80;99.90;;;;;;5010681;28;20304;-61
2022/07/25 11:43:31;;;;;;;;;;;18.80;99.90;;;;;;5009611;28;19936;-61
2022/07/25 11:46:02;;;;;;;;;;;19.00;99.90;;;;;;5008694;28;19936;-62
2022/07/25 11:48:31;;;;;;;;;;;19.40;99.90;;;;;;5008503;28;19929;-62
2022/07/25 11:51:10;;;;;;;;;;;19.70;99.90;;;;;;5010412;28;19929;-61
2022/07/25 11:53:45;;;;;;;;;;;19.80;99.90;;;;;;5003239;28;19925;-61
2022/07/25 11:56:14;;;;;;;;;;;19.90;99.90;;;;;;5004866;28;20377;-62
2022/07/25 11:59:01;;;;;;;;;;;20.00;99.90;;;;;;5016662;28;19933;-61
2022/07/25 12:01:33;;;;;;;;;;;20.00;99.90;;;;;;5010156;28;19926;-62
2022/07/25 12:04:11;;;;;;;;;;;20.00;99.90;;;;;;5024881;28;19932;-61
2022/07/25 12:06:40;;;;;;;;;;;19.90;99.90;;;;;;5029719;28;20536;-62
2022/07/25 12:09:26;;;;;;;;;;;19.80;99.90;;;;;;5010975;28;19933;-62
2022/07/25 12:12:00;;;;;;;;;;;19.80;99.90;;;;;;5008695;28;19926;-62
2022/07/25 12:14:28;;;;;;;;;;;19.60;99.90;;;;;;5012600;28;19925;-62
2022/07/25 12:17:01;;;;;;;;;;;19.40;99.90;;;;;;5006325;28;19929;-61
2022/07/25 12:19:29;;;;;;;;;;;19.30;99.90;;;;;;4990098;28;20289;-62
2022/07/25 12:21:56;;;;;;;;;;;19.20;99.90;;;;;;4988802;28;19937;-62
2022/07/25 12:24:24;;;;;;;;;;;19.30;99.90;;;;;;4989209;28;20281;-62
2022/07/25 12:26:51;;;;;;;;;;;19.40;99.90;;;;;;4996154;28;19930;-62
2022/07/25 12:29:19;;;;;;;;;;;19.50;99.90;;;;;;5017443;28;19948;-61
2022/07/25 12:31:46;;;;;;;;;;;19.50;99.90;;;;;;4992293;28;19958;-61
2022/07/25 12:34:14;;;;;;;;;;;19.50;99.90;;;;;;5009123;28;20364;-61
2022/07/25 12:36:43;;;;;;;;;;;19.40;99.90;;;;;;5008287;28;19932;-62
2022/07/25 12:39:11;;;;;;;;;;;19.40;99.90;;;;;;5024405;28;19937;-61
2022/07/25 12:41:41;;;;;;;;;;;19.50;99.90;;;;;;5034827;28;19925;-62
2022/07/25 12:44:09;;;;;;;;;;;19.70;99.90;;;;;;5006624;28;20377;-63
2022/07/25 12:46:39;;;;;;;;;;;19.80;99.90;;;;;;5007727;28;19932;-62
2022/07/25 12:49:06;;;;;;;;;;;19.90;99.90;;;;;;5024545;28;20000;-62
2022/07/25 12:51:34;;;;;;;;;;;19.90;99.90;;;;;;5021577;28;19929;-61
2022/07/25 12:54:02;;;;;;;;;;;20.00;99.90;;;;;;5008844;28;19925;-63
2022/07/25 12:56:30;;;;;;;;;;;19.90;99.90;;;;;;5009169;28;19936;-63
2022/07/25 12:58:57;;;;;;;;;;;19.90;99.90;;;;;;5019602;28;19930;-61
2022/07/25 13:01:25;;;;;;;;;;;20.00;99.90;;;;;;5024501;28;20373;-63
2022/07/25 13:03:53;;;;;;;;;;;20.00;99.90;;;;;;5021239;28;19929;-63
2022/07/25 13:06:20;;;;;;;;;;;20.30;99.90;;;;;;5028794;28;19933;-64
2022/07/25 13:08:48;;;;;;;;;;;20.40;99.90;;;;;;4999190;28;19933;-63
2022/07/25 13:11:15;;;;;;;;;;;20.40;99.90;;;;;;4992417;28;19933;-63
2022/07/25 13:13:43;;;;;;;;;;;20.40;99.90;;;;;;5009938;28;19948;-64
2022/07/25 13:16:10;;;;;;;;;;;20.60;99.90;;;;;;5007566;28;19929;-64
2022/07/25 13:18:38;;;;;;;;;;;20.70;99.90;;;;;;5003822;28;19940;-65
2022/07/25 13:21:05;;;;;;;;;;;20.70;99.90;;;;;;5005019;28;19925;-64
2022/07/25 13:23:33;;;;;;;;;;;20.90;99.90;;;;;;4997028;28;19937;-62
2022/07/25 13:26:01;;;;;;;;;;;21.50;99.90;;;;;;4996173;28;19929;-62
2022/07/25 13:28:28;;;;;;;;;;;22.00;99.90;;;;;;4994560;28;19929;-63
2022/07/25 13:30:56;;;;;;;;;;;22.60;99.90;;;;;;5002729;28;19937;-62
2022/07/25 13:33:23;;;;;;;;;;;23.10;99.90;;;;;;5007983;28;19926;-64
2022/07/25 13:35:51;;;;;;;;;;;23.50;99.90;;;;;;5008669;28;19926;-61
2022/07/25 13:38:18;;;;;;;;;;;23.70;99.80;;;;;;5003052;28;19956;-64
2022/07/25 13:40:46;;;;;;;;;;;23.50;99.80;;;;;;5007184;28;19925;-62
2022/07/25 13:43:13;;;;;;;;;;;23.30;99.90;;;;;;5005624;28;19932;-64
2022/07/25 13:45:41;;;;;;;;;;;23.20;99.90;;;;;;4992117;28;19925;-63
2022/07/25 13:48:09;;;;;;;;;;;23.20;99.90;;;;;;4999895;28;19933;-63
2022/07/25 13:50:57;;;;;;;;;;;23.20;99.90;;;;;;5002161;28;20829;-62
2022/07/25 13:53:24;;;;;;;;;;;23.00;99.30;;;;;;5006393;28;20424;-64
2022/07/25 13:55:57;;;;;;;;;;;22.70;99.50;;;;;;5008580;28;19936;-63
2022/07/25 13:58:25;;;;;;;;;;;22.20;99.30;;;;;;5006759;28;19933;-64
2022/07/25 14:00:52;;;;;;;;;;;21.80;99.90;;;;;;5006180;28;19932;-64
2022/07/25 14:03:20;;;;;;;;;;;21.40;99.90;;;;;;4997926;28;19926;-63
2022/07/25 14:05:48;;;;;;;;;;;21.10;99.90;;;;;;5007933;28;19925;-64
2022/07/25 14:08:15;;;;;;;;;;;20.80;99.90;;;;;;5004174;28;20361;-63
2022/07/25 14:10:43;;;;;;;;;;;20.60;99.90;;;;;;4995556;28;19930;-64
2022/07/25 14:13:11;;;;;;;;;;;20.30;99.90;;;;;;4995816;28;19926;-64
2022/07/25 14:15:39;;;;;;;;;;;20.00;99.90;;;;;;5006931;28;19925;-64
2022/07/25 14:18:07;;;;;;;;;;;19.80;99.90;;;;;;5004131;28;19933;-64
2022/07/25 14:20:34;;;;;;;;;;;19.70;99.90;;;;;;5009955;28;19936;-65
2022/07/25 14:23:01;;;;;;;;;;;19.70;99.90;;;;;;5000225;28;19929;-61
2022/07/25 14:25:29;;;;;;;;;;;19.70;99.90;;;;;;4992189;28;19926;-62
2022/07/25 14:27:58;;;;;;;;;;;19.70;99.90;;;;;;4999568;28;19925;-62
2022/07/25 14:30:25;;;;;;;;;;;19.60;99.90;;;;;;5010569;28;19926;-63